Time;durP1;ratioP1;P1;durP2;ratioP2;P2;SDS_P1;SDS_P2;PMS_P1;PMS_P2;Temp;Humidity;BMP_temperature;BMP_pressure;BME280_temperature;BME280_humidity;BME280_pressure;Samples;Min_cycle;Max_cycle;Signal;HPM_P1;HPM_P2
2023/04/22 00:00:54;;;;;;;6.25;2.90;;;;;;;;;;4978413;28;20778;-83
2023/04/22 00:03:27;;;;;;;8.13;2.80;;;;;;;;;;4988101;28;20929;-83
2023/04/22 00:05:55;;;;;;;5.80;2.83;;;;;;;;;;4983675;28;20902;-82
2023/04/22 00:08:28;;;;;;;7.68;2.85;;;;;;;;;;4983118;28;20430;-84
2023/04/22 00:10:56;;;;;;;8.40;3.20;;;;;;;;;;4985711;28;20469;-83
2023/04/22 00:13:25;;;;;;;6.07;2.92;;;;;;;;;;4997127;28;20450;-85
2023/04/22 00:15:58;;;;;;;5.80;3.00;;;;;;;;;;4999730;28;20434;-83
2023/04/22 00:18:26;;;;;;;6.37;3.07;;;;;;;;;;4983419;28;20430;-82
2023/04/22 00:20:53;;;;;;;5.65;2.85;;;;;;;;;;4990889;28;21108;-82
2023/04/22 00:23:26;;;;;;;6.43;2.90;;;;;;;;;;4991467;28;20422;-82
2023/04/22 00:25:54;;;;;;;9.93;3.05;;;;;;;;;;4992990;28;20403;-82
2023/04/22 00:28:22;;;;;;;6.78;3.10;;;;;;;;;;4991788;28;20410;-84
2023/04/22 00:30:57;;;;;;;8.10;3.10;;;;;;;;;;4992376;28;20430;-83
2023/04/22 00:33:30;;;;;;;6.18;2.90;;;;;;;;;;4998671;28;20430;-82
2023/04/22 00:35:58;;;;;;;7.25;3.15;;;;;;;;;;4989636;28;20431;-81
2023/04/22 00:38:31;;;;;;;8.05;3.40;;;;;;;;;;4997200;28;20449;-83
2023/04/22 00:41:04;;;;;;;8.23;3.28;;;;;;;;;;5001458;28;20434;-82
2023/04/22 00:43:32;;;;;;;9.52;3.25;;;;;;;;;;4997107;28;20450;-83
2023/04/22 00:46:07;;;;;;;7.45;3.30;;;;;;;;;;4989729;28;20926;-82
2023/04/22 00:48:35;;;;;;;6.57;3.20;;;;;;;;;;5002331;28;20502;-84
2023/04/22 00:51:04;;;;;;;7.72;3.33;;;;;;;;;;4983156;28;20445;-83
2023/04/22 00:53:32;;;;;;;7.07;3.13;;;;;;;;;;4996192;28;20434;-83
2023/04/22 00:56:05;;;;;;;7.15;3.40;;;;;;;;;;5001902;28;20426;-83
2023/04/22 00:58:37;;;;;;;8.48;3.65;;;;;;;;;;4983658;28;20930;-82
2023/04/22 01:01:12;;;;;;;7.93;3.38;;;;;;;;;;4987180;28;20434;-83
2023/04/22 01:03:46;;;;;;;7.40;3.13;;;;;;;;;;5003561;28;20438;-83
2023/04/22 01:06:19;;;;;;;8.02;3.50;;;;;;;;;;5004353;28;20510;-82
2023/04/22 01:08:52;;;;;;;6.70;3.23;;;;;;;;;;4982344;28;20446;-83
2023/04/22 01:11:25;;;;;;;9.47;3.40;;;;;;;;;;4990050;28;20918;-83
2023/04/22 01:13:52;;;;;;;6.28;3.22;;;;;;;;;;4989884;28;20756;-81
2023/04/22 01:16:27;;;;;;;9.90;3.60;;;;;;;;;;4988755;28;20422;-83
2023/04/22 01:19:01;;;;;;;8.05;3.42;;;;;;;;;;4983143;28;20434;-83
2023/04/22 01:21:35;;;;;;;9.70;3.50;;;;;;;;;;4986146;28;20422;-84
2023/04/22 01:24:09;;;;;;;11.82;3.70;;;;;;;;;;4987941;28;20444;-82
2023/04/22 01:26:42;;;;;;;8.90;3.60;;;;;;;;;;4987931;28;20441;-83
2023/04/22 01:29:10;;;;;;;7.43;3.33;;;;;;;;;;4981801;28;20461;-82
2023/04/22 01:31:43;;;;;;;6.77;3.27;;;;;;;;;;4982502;28;20427;-82
2023/04/22 01:34:11;;;;;;;9.70;3.73;;;;;;;;;;4982947;28;20530;-83
2023/04/22 01:36:39;;;;;;;8.83;3.80;;;;;;;;;;4990448;28;21244;-83
2023/04/22 01:39:08;;;;;;;8.80;3.55;;;;;;;;;;4981626;28;20760;-83
2023/04/22 01:41:36;;;;;;;7.63;3.90;;;;;;;;;;4996441;28;20430;-82
2023/04/22 01:44:09;;;;;;;8.18;3.92;;;;;;;;;;5004441;28;20422;-83
2023/04/22 01:46:37;;;;;;;7.70;3.78;;;;;;;;;;4984235;28;20421;-82
2023/04/22 01:49:10;;;;;;;9.25;3.70;;;;;;;;;;4989505;28;20414;-82
2023/04/22 01:51:43;;;;;;;8.75;3.80;;;;;;;;;;4981338;28;20433;-82
2023/04/22 01:54:12;;;;;;;8.55;3.80;;;;;;;;;;4998447;28;20446;-83
2023/04/22 01:56:49;;;;;;;7.70;3.70;;;;;;;;;;4989448;28;20426;-82
2023/04/22 01:59:22;;;;;;;7.55;3.75;;;;;;;;;;4997981;28;20946;-82
2023/04/22 02:01:50;;;;;;;8.07;3.80;;;;;;;;;;5005383;28;20437;-82
2023/04/22 02:04:22;;;;;;;8.32;3.92;;;;;;;;;;4990883;28;20426;-81
2023/04/22 02:06:55;;;;;;;8.70;3.90;;;;;;;;;;4988939;28;20422;-83
2023/04/22 02:09:24;;;;;;;7.93;3.97;;;;;;;;;;5005907;28;20426;-82
2023/04/22 02:11:57;;;;;;;8.07;4.03;;;;;;;;;;4991242;28;20430;-82
2023/04/22 02:14:25;;;;;;;8.35;4.20;;;;;;;;;;4984514;28;20434;-82
2023/04/22 02:16:53;;;;;;;8.63;3.95;;;;;;;;;;4998857;28;20437;-81
2023/04/22 02:19:26;;;;;;;12.20;4.47;;;;;;;;;;4983945;28;20433;-82
2023/04/22 02:21:54;;;;;;;9.43;4.20;;;;;;;;;;5000883;28;21127;-82
2023/04/22 02:24:28;;;;;;;9.70;4.13;;;;;;;;;;4985950;28;20422;-82
2023/04/22 02:26:58;;;;;;;9.88;4.30;;;;;;;;;;4998679;28;20945;-82
2023/04/22 02:29:31;;;;;;;9.25;4.43;;;;;;;;;;5000858;28;20434;-81
2023/04/22 02:32:04;;;;;;;9.38;4.05;;;;;;;;;;5001493;28;21475;-83
2023/04/22 02:34:37;;;;;;;8.57;4.20;;;;;;;;;;4984888;28;20930;-83
2023/04/22 02:37:09;;;;;;;10.23;4.70;;;;;;;;;;4986047;28;20776;-82
2023/04/22 02:39:43;;;;;;;9.87;4.40;;;;;;;;;;4998056;28;20442;-82
2023/04/22 02:42:17;;;;;;;9.90;4.57;;;;;;;;;;4985605;28;20430;-81
2023/04/22 02:44:45;;;;;;;8.30;4.40;;;;;;;;;;4990247;28;21059;-83
2023/04/22 02:47:20;;;;;;;8.75;4.63;;;;;;;;;;5007677;28;20414;-82
2023/04/22 02:49:52;;;;;;;10.77;4.63;;;;;;;;;;5008249;28;20438;-84
2023/04/22 02:52:25;;;;;;;10.38;4.70;;;;;;;;;;5008076;28;20910;-84
2023/04/22 02:54:55;;;;;;;9.88;4.60;;;;;;;;;;4992227;28;20426;-84
2023/04/22 02:57:22;;;;;;;9.00;4.63;;;;;;;;;;5011287;28;20430;-83
2023/04/22 02:59:56;;;;;;;9.88;4.80;;;;;;;;;;4993164;28;20494;-83
2023/04/22 03:02:29;;;;;;;9.05;4.75;;;;;;;;;;5007622;28;20433;-83
2023/04/22 03:05:09;;;;;;;10.63;4.75;;;;;;;;;;5001598;28;20533;-83
2023/04/22 03:07:36;;;;;;;9.20;4.45;;;;;;;;;;5008980;28;20426;-83
2023/04/22 03:10:06;;;;;;;9.60;4.63;;;;;;;;;;4993909;28;21025;-83
2023/04/22 03:12:34;;;;;;;9.13;4.63;;;;;;;;;;4994241;28;20426;-83
2023/04/22 03:15:02;;;;;;;8.18;4.90;;;;;;;;;;4984552;28;20528;-82
2023/04/22 03:17:35;;;;;;;9.20;4.65;;;;;;;;;;5001047;28;20966;-82
2023/04/22 03:20:11;;;;;;;8.57;4.60;;;;;;;;;;4997456;28;20441;-82
2023/04/22 03:22:44;;;;;;;10.30;4.60;;;;;;;;;;4995946;28;22094;-83
2023/04/22 03:25:15;;;;;;;11.70;5.07;;;;;;;;;;4978929;28;20445;-82
2023/04/22 03:27:49;;;;;;;10.77;4.97;;;;;;;;;;4996943;28;20427;-82
2023/04/22 03:30:18;;;;;;;10.32;4.70;;;;;;;;;;4997461;28;20444;-83
2023/04/22 03:32:47;;;;;;;10.20;4.90;;;;;;;;;;4981939;28;20458;-83
2023/04/22 03:35:23;;;;;;;9.18;4.90;;;;;;;;;;4997583;28;20433;-83
2023/04/22 03:37:59;;;;;;;11.13;5.07;;;;;;;;;;4981725;28;22014;-83
2023/04/22 03:40:36;;;;;;;10.00;4.85;;;;;;;;;;4983864;28;20438;-83
2023/04/22 03:43:26;;;;;;;10.75;4.82;;;;;;;;;;5000976;28;20433;-83
2023/04/22 03:46:03;;;;;;;10.00;5.25;;;;;;;;;;4999166;28;20807;-83
2023/04/22 03:48:40;;;;;;;9.43;5.30;;;;;;;;;;4983848;28;20429;-83
2023/04/22 03:51:18;;;;;;;9.57;5.17;;;;;;;;;;5000823;28;20546;-83
2023/04/22 03:53:47;;;;;;;9.75;5.30;;;;;;;;;;4986378;28;20426;-84
2023/04/22 03:56:24;;;;;;;10.60;5.10;;;;;;;;;;5003531;28;20430;-83
2023/04/22 03:58:55;;;;;;;10.52;5.30;;;;;;;;;;4999695;28;20429;-83
2023/04/22 04:01:24;;;;;;;12.02;6.18;;;;;;;;;;5004172;28;20434;-82
2023/04/22 04:03:55;;;;;;;11.30;5.67;;;;;;;;;;4986339;28;20445;-82
2023/04/22 04:06:27;;;;;;;12.82;5.82;;;;;;;;;;4985555;28;20431;-82
2023/04/22 04:09:00;;;;;;;10.37;5.50;;;;;;;;;;4986228;28;20438;-82
2023/04/22 04:11:30;;;;;;;13.32;5.93;;;;;;;;;;4980977;28;21059;-83
2023/04/22 04:13:58;;;;;;;10.35;5.80;;;;;;;;;;4999208;28;20445;-82
2023/04/22 04:16:37;;;;;;;12.70;6.13;;;;;;;;;;4984432;28;21417;-82
2023/04/22 04:19:16;;;;;;;10.07;5.65;;;;;;;;;;4981652;28;20433;-82
2023/04/22 04:21:48;;;;;;;12.13;5.95;;;;;;;;;;4983614;28;20430;-83
2023/04/22 04:24:23;;;;;;;11.07;5.50;;;;;;;;;;5002846;28;20445;-82
2023/04/22 04:26:57;;;;;;;11.00;6.07;;;;;;;;;;4997978;28;20446;-82
2023/04/22 04:29:31;;;;;;;11.10;5.85;;;;;;;;;;4984987;28;20422;-83
2023/04/22 04:32:09;;;;;;;10.00;5.60;;;;;;;;;;4982670;28;20436;-82
2023/04/22 04:34:42;;;;;;;11.55;5.95;;;;;;;;;;5001269;28;20446;-82
2023/04/22 04:37:11;;;;;;;10.20;5.70;;;;;;;;;;4982348;28;20422;-82
2023/04/22 04:39:51;;;;;;;11.23;5.93;;;;;;;;;;4982679;28;20418;-82
2023/04/22 04:42:29;;;;;;;11.87;6.20;;;;;;;;;;4988490;28;20864;-81
2023/04/22 04:45:03;;;;;;;13.27;5.85;;;;;;;;;;5003559;28;20445;-82
2023/04/22 04:47:32;;;;;;;11.83;5.80;;;;;;;;;;5006051;28;20445;-83
2023/04/22 04:50:11;;;;;;;10.93;5.70;;;;;;;;;;4990839;28;20445;-83
2023/04/22 04:52:39;;;;;;;11.13;5.67;;;;;;;;;;4982417;28;20434;-81
2023/04/22 04:55:07;;;;;;;11.13;6.00;;;;;;;;;;5006426;28;20425;-83
2023/04/22 04:57:36;;;;;;;11.63;5.80;;;;;;;;;;4989664;28;20763;-82
2023/04/22 05:00:12;;;;;;;10.50;5.97;;;;;;;;;;5002630;28;20434;-82
2023/04/22 05:02:46;;;;;;;11.43;5.93;;;;;;;;;;5000635;28;20441;-83
2023/04/22 05:05:14;;;;;;;11.43;5.80;;;;;;;;;;4989963;28;20425;-82
2023/04/22 05:07:43;;;;;;;11.13;5.53;;;;;;;;;;4989128;28;20795;-83
2023/04/22 05:10:16;;;;;;;12.05;5.88;;;;;;;;;;5003235;28;20430;-83
2023/04/22 05:12:46;;;;;;;8.90;5.57;;;;;;;;;;4998235;28;20433;-82
2023/04/22 05:15:19;;;;;;;11.02;5.70;;;;;;;;;;4988257;28;20429;-83
2023/04/22 05:17:47;;;;;;;9.60;5.18;;;;;;;;;;5001281;28;20453;-82
2023/04/22 05:20:20;;;;;;;11.95;5.70;;;;;;;;;;4988937;28;20903;-83
2023/04/22 05:22:48;;;;;;;11.73;5.80;;;;;;;;;;4988403;28;20426;-82
2023/04/22 05:25:16;;;;;;;10.20;5.70;;;;;;;;;;4987172;28;20430;-82
2023/04/22 05:27:54;;;;;;;9.15;5.65;;;;;;;;;;4987913;28;20426;-83
2023/04/22 05:30:25;;;;;;;11.45;5.97;;;;;;;;;;5006276;28;20441;-83
2023/04/22 05:32:53;;;;;;;10.70;5.85;;;;;;;;;;4991996;28;20438;-85
2023/04/22 05:35:22;;;;;;;11.00;6.53;;;;;;;;;;4980861;28;20437;-82
2023/04/22 05:37:50;;;;;;;11.10;6.38;;;;;;;;;;4994912;28;20807;-82
2023/04/22 05:40:18;;;;;;;12.32;6.20;;;;;;;;;;4974320;28;20992;-82
2023/04/22 05:42:51;;;;;;;12.00;6.07;;;;;;;;;;4983665;28;20436;-81
2023/04/22 05:45:20;;;;;;;11.88;6.13;;;;;;;;;;4977889;28;20449;-82
2023/04/22 05:47:53;;;;;;;11.00;6.00;;;;;;;;;;4995808;28;20425;-80
2023/04/22 05:50:30;;;;;;;11.82;6.30;;;;;;;;;;4981761;28;20441;-84
2023/04/22 05:53:07;;;;;;;10.93;6.20;;;;;;;;;;4991109;28;20445;-80
2023/04/22 05:55:35;;;;;;;11.38;5.95;;;;;;;;;;4995077;28;20761;-81
2023/04/22 05:58:06;;;;;;;12.10;6.13;;;;;;;;;;4992115;28;20756;-82
2023/04/22 06:01:01;;;;;;;11.43;6.40;;;;;;;;;;4987227;28;20449;-81
2023/04/22 06:03:57;;;;;;;10.55;6.32;;;;;;;;;;5004241;28;20939;-80
2023/04/22 06:06:30;;;;;;;10.60;6.40;;;;;;;;;;5005155;28;20423;-80
2023/04/22 06:09:03;;;;;;;12.95;6.20;;;;;;;;;;4993135;28;20430;-81
2023/04/22 06:11:36;;;;;;;12.10;6.10;;;;;;;;;;4989264;28;20899;-81
2023/04/22 06:14:09;;;;;;;11.30;6.10;;;;;;;;;;5004649;28;20541;-81
2023/04/22 06:16:39;;;;;;;10.80;6.50;;;;;;;;;;4987905;28;20434;-79
2023/04/22 06:19:12;;;;;;;12.27;6.50;;;;;;;;;;4986589;28;20427;-82
2023/04/22 06:21:40;;;;;;;11.73;6.35;;;;;;;;;;4988063;28;20435;-81
2023/04/22 06:24:09;;;;;;;10.70;6.20;;;;;;;;;;4986860;28;20438;-81
2023/04/22 06:26:37;;;;;;;14.57;6.55;;;;;;;;;;4988077;28;20773;-79
2023/04/22 06:29:05;;;;;;;10.60;6.60;;;;;;;;;;5006233;28;20421;-81
2023/04/22 06:31:34;;;;;;;11.80;6.38;;;;;;;;;;4989626;28;20430;-80
2023/04/22 06:34:04;;;;;;;11.15;6.40;;;;;;;;;;4986312;28;20437;-80
2023/04/22 06:36:36;;;;;;;10.63;6.20;;;;;;;;;;4987685;28;20416;-80
2023/04/22 06:39:04;;;;;;;11.47;6.40;;;;;;;;;;4997966;28;20437;-82
2023/04/22 06:41:32;;;;;;;12.82;6.82;;;;;;;;;;4988147;28;20430;-81
2023/04/22 06:44:05;;;;;;;12.27;6.60;;;;;;;;;;5001845;28;20430;-81
2023/04/22 06:46:57;;;;;;;12.32;6.72;;;;;;;;;;4983684;28;20434;-82
2023/04/22 06:49:26;;;;;;;11.32;6.93;;;;;;;;;;4988568;28;20434;-82
2023/04/22 06:52:30;;;;;;;11.27;6.70;;;;;;;;;;4982309;28;20756;-81
2023/04/22 06:55:06;;;;;;;12.47;7.13;;;;;;;;;;4999072;28;20431;-82
2023/04/22 06:57:34;;;;;;;13.23;7.40;;;;;;;;;;4989567;28;20907;-83
2023/04/22 07:00:10;;;;;;;12.15;6.85;;;;;;;;;;5004475;28;20422;-83
2023/04/22 07:02:49;;;;;;;13.30;7.20;;;;;;;;;;5003848;28;20438;-81
2023/04/22 07:05:23;;;;;;;11.00;6.70;;;;;;;;;;4990234;28;20445;-82
2023/04/22 07:07:51;;;;;;;13.07;6.88;;;;;;;;;;4987045;28;20430;-81
2023/04/22 07:10:25;;;;;;;12.52;7.07;;;;;;;;;;4992405;28;20431;-83
2023/04/22 07:13:12;;;;;;;11.70;6.95;;;;;;;;;;4989349;28;20451;-81
2023/04/22 07:15:45;;;;;;;12.80;7.03;;;;;;;;;;5005924;28;20438;-81
2023/04/22 07:18:13;;;;;;;11.77;6.57;;;;;;;;;;5002428;28;20434;-81
2023/04/22 07:20:47;;;;;;;14.00;6.80;;;;;;;;;;4994534;28;20918;-82
2023/04/22 07:23:20;;;;;;;10.65;6.75;;;;;;;;;;4991731;28;20438;-83
2023/04/22 07:25:53;;;;;;;14.75;7.18;;;;;;;;;;4990178;28;20793;-81
2023/04/22 07:28:26;;;;;;;12.75;7.03;;;;;;;;;;4988098;28;20783;-82
2023/04/22 07:30:54;;;;;;;10.83;6.50;;;;;;;;;;4991959;28;20426;-80
2023/04/22 07:33:22;;;;;;;14.35;6.47;;;;;;;;;;4990048;28;20452;-80
2023/04/22 07:35:56;;;;;;;12.20;6.85;;;;;;;;;;4986559;28;20927;-81
2023/04/22 07:38:24;;;;;;;12.10;6.90;;;;;;;;;;4990570;28;20433;-82
2023/04/22 07:40:57;;;;;;;13.25;6.80;;;;;;;;;;5003050;28;20435;-81
2023/04/22 07:43:24;;;;;;;11.35;6.47;;;;;;;;;;4971217;28;20445;-80
2023/04/22 07:45:57;;;;;;;15.35;6.50;;;;;;;;;;4992605;28;20434;-82
2023/04/22 07:48:25;;;;;;;12.43;6.53;;;;;;;;;;4967390;28;20441;-81
2023/04/22 07:50:59;;;;;;;12.10;6.50;;;;;;;;;;4988401;28;20434;-82
2023/04/22 07:53:32;;;;;;;13.90;6.07;;;;;;;;;;4967172;28;20442;-82
2023/04/22 07:56:05;;;;;;;12.52;6.82;;;;;;;;;;4973234;28;21699;-80
2023/04/22 07:58:37;;;;;;;10.82;6.57;;;;;;;;;;4976543;28;20442;-82
2023/04/22 08:01:10;;;;;;;10.82;6.10;;;;;;;;;;4974007;28;20913;-82
2023/04/22 08:03:43;;;;;;;11.98;6.28;;;;;;;;;;4978004;28;20787;-81
2023/04/22 08:06:12;;;;;;;11.20;6.40;;;;;;;;;;4973294;28;20437;-82
2023/04/22 08:08:45;;;;;;;13.65;6.57;;;;;;;;;;4972607;28;21061;-82
2023/04/22 08:11:13;;;;;;;12.00;6.53;;;;;;;;;;4978748;28;21028;-81
2023/04/22 08:13:46;;;;;;;10.68;6.35;;;;;;;;;;4990547;28;20934;-80
2023/04/22 08:16:14;;;;;;;12.05;5.97;;;;;;;;;;4973091;28;20429;-81
2023/04/22 08:18:46;;;;;;;10.13;6.30;;;;;;;;;;4995311;28;20429;-81
2023/04/22 08:21:16;;;;;;;13.07;6.50;;;;;;;;;;4987797;28;20442;-83
2023/04/22 08:23:43;;;;;;;13.50;6.53;;;;;;;;;;4966793;28;20443;-83
2023/04/22 08:26:13;;;;;;;11.20;5.87;;;;;;;;;;4970550;28;20435;-83
2023/04/22 08:28:42;;;;;;;10.10;6.00;;;;;;;;;;4976311;28;20433;-82
2023/04/22 08:31:11;;;;;;;10.77;6.10;;;;;;;;;;4992788;28;20441;-81
2023/04/22 08:33:44;;;;;;;10.07;6.10;;;;;;;;;;4989584;28;20447;-83
2023/04/22 08:36:12;;;;;;;10.52;5.97;;;;;;;;;;4973106;28;20477;-81
2023/04/22 08:38:41;;;;;;;10.57;5.82;;;;;;;;;;4975560;28;20843;-82
2023/04/22 08:41:10;;;;;;;9.15;5.35;;;;;;;;;;4975661;28;20446;-82
2023/04/22 08:43:44;;;;;;;12.60;5.60;;;;;;;;;;4967363;28;20831;-82
2023/04/22 08:46:18;;;;;;;12.20;5.93;;;;;;;;;;4990692;28;20449;-81
2023/04/22 08:48:51;;;;;;;11.90;5.82;;;;;;;;;;4990906;28;20431;-82
2023/04/22 08:51:25;;;;;;;10.63;5.80;;;;;;;;;;4984726;28;21025;-82
2023/04/22 08:53:54;;;;;;;12.02;5.70;;;;;;;;;;4971788;28;20430;-81
2023/04/22 08:56:28;;;;;;;11.77;5.47;;;;;;;;;;4984621;28;20435;-82
2023/04/22 08:59:01;;;;;;;12.07;6.07;;;;;;;;;;4972694;28;20440;-80
2023/04/22 09:01:30;;;;;;;12.25;5.60;;;;;;;;;;4971566;28;20441;-81
2023/04/22 09:04:03;;;;;;;9.70;5.23;;;;;;;;;;4970447;28;20446;-82
2023/04/22 09:06:37;;;;;;;10.13;5.28;;;;;;;;;;4969506;28;20973;-81
2023/04/22 09:09:12;;;;;;;9.80;5.70;;;;;;;;;;4989579;28;20437;-80
2023/04/22 09:11:39;;;;;;;9.68;5.75;;;;;;;;;;4971643;28;20442;-81
2023/04/22 09:14:12;;;;;;;11.45;5.82;;;;;;;;;;4968995;28;20438;-82
2023/04/22 09:16:41;;;;;;;10.70;5.75;;;;;;;;;;4972877;28;20432;-81
2023/04/22 09:19:14;;;;;;;11.23;5.50;;;;;;;;;;4971982;28;20438;-81
2023/04/22 09:21:47;;;;;;;10.88;5.68;;;;;;;;;;4988687;28;20436;-81
2023/04/22 09:24:21;;;;;;;10.80;5.85;;;;;;;;;;4970264;28;21041;-81
2023/04/22 09:26:49;;;;;;;10.18;5.60;;;;;;;;;;4979114;28;20451;-80
2023/04/22 09:29:22;;;;;;;10.48;5.57;;;;;;;;;;4986314;28;20437;-81
2023/04/22 09:31:55;;;;;;;10.18;5.43;;;;;;;;;;4972128;28;20907;-80
2023/04/22 09:34:30;;;;;;;10.40;5.43;;;;;;;;;;4978156;28;22037;-82
2023/04/22 09:36:58;;;;;;;10.35;5.32;;;;;;;;;;4990743;28;20436;-80
2023/04/22 09:39:32;;;;;;;10.73;5.30;;;;;;;;;;4987063;28;20936;-81
2023/04/22 09:42:05;;;;;;;9.68;5.13;;;;;;;;;;4967835;28;20441;-81
2023/04/22 09:44:38;;;;;;;11.75;5.60;;;;;;;;;;4987343;28;20441;-80
2023/04/22 09:47:11;;;;;;;10.30;5.50;;;;;;;;;;4980711;28;20433;-81
2023/04/22 09:49:45;;;;;;;14.60;5.55;;;;;;;;;;4965328;28;20434;-81
2023/04/22 09:52:25;;;;;;;8.45;5.35;;;;;;;;;;4989799;28;21039;-81
2023/04/22 09:54:54;;;;;;;9.57;5.10;;;;;;;;;;4987041;28;20441;-81
2023/04/22 09:57:27;;;;;;;10.13;5.10;;;;;;;;;;4969848;28;20440;-80
2023/04/22 10:00:00;;;;;;;9.38;5.05;;;;;;;;;;4973500;28;20906;-79
2023/04/22 10:02:33;;;;;;;10.45;5.18;;;;;;;;;;5000182;28;20458;-80
2023/04/22 10:05:01;;;;;;;9.15;5.10;;;;;;;;;;4987120;28;20445;-79
2023/04/22 10:07:31;;;;;;;9.43;5.10;;;;;;;;;;4985517;28;20909;-79
2023/04/22 10:10:00;;;;;;;9.68;4.72;;;;;;;;;;4985905;28;20441;-80
2023/04/22 10:12:34;;;;;;;9.27;4.75;;;;;;;;;;4987026;28;21290;-79
2023/04/22 10:15:01;;;;;;;9.10;4.75;;;;;;;;;;4989498;28;20775;-79
2023/04/22 10:17:31;;;;;;;10.07;4.85;;;;;;;;;;4987515;28;20921;-79
2023/04/22 10:20:02;;;;;;;9.45;4.68;;;;;;;;;;5005546;28;20913;-79
2023/04/22 10:22:30;;;;;;;9.80;4.83;;;;;;;;;;4987520;28;20429;-80
2023/04/22 10:25:04;;;;;;;11.03;5.10;;;;;;;;;;4987285;28;20434;-79
2023/04/22 10:27:32;;;;;;;11.32;5.00;;;;;;;;;;4980668;28;20447;-80
2023/04/22 10:30:07;;;;;;;10.27;4.50;;;;;;;;;;5001760;28;20431;-78
2023/04/22 10:32:35;;;;;;;8.93;4.80;;;;;;;;;;4986894;28;20787;-80
2023/04/22 10:35:09;;;;;;;9.03;4.70;;;;;;;;;;4983017;28;20420;-80
2023/04/22 10:37:40;;;;;;;10.00;4.95;;;;;;;;;;4990925;28;20430;-80
2023/04/22 10:40:16;;;;;;;10.35;4.50;;;;;;;;;;4993757;28;20426;-80
2023/04/22 10:42:46;;;;;;;8.67;4.17;;;;;;;;;;4982791;28;20422;-81
2023/04/22 10:45:23;;;;;;;10.30;4.45;;;;;;;;;;5000324;28;20439;-81
2023/04/22 10:47:52;;;;;;;7.80;4.07;;;;;;;;;;4999995;28;20422;-80
2023/04/22 10:50:26;;;;;;;7.53;4.03;;;;;;;;;;4991016;28;20434;-80
2023/04/22 10:53:02;;;;;;;8.10;4.40;;;;;;;;;;4989363;28;20426;-80
2023/04/22 10:55:49;;;;;;;8.20;4.25;;;;;;;;;;5005247;28;20450;-81
2023/04/22 10:58:23;;;;;;;8.45;4.40;;;;;;;;;;5003017;28;20957;-81
2023/04/22 11:00:58;;;;;;;7.50;4.10;;;;;;;;;;4990542;28;20756;-80
2023/04/22 11:03:27;;;;;;;9.32;4.07;;;;;;;;;;4992378;28;20915;-80
2023/04/22 11:06:18;;;;;;;9.23;4.43;;;;;;;;;;4991240;28;20422;-81
2023/04/22 11:08:46;;;;;;;9.97;5.27;;;;;;;;;;5002321;28;20550;-80
2023/04/22 11:11:16;;;;;;;8.32;4.35;;;;;;;;;;5004302;28;20426;-79
2023/04/22 11:13:44;;;;;;;8.02;4.60;;;;;;;;;;4998220;28;20463;-80
2023/04/22 11:16:17;;;;;;;9.55;3.70;;;;;;;;;;4991258;28;20434;-81
2023/04/22 11:18:50;;;;;;;7.23;4.03;;;;;;;;;;4991774;28;20448;-80
2023/04/22 11:21:22;;;;;;;9.10;4.40;;;;;;;;;;4986940;28;20452;-80
2023/04/22 11:23:51;;;;;;;8.00;4.65;;;;;;;;;;4991440;28;20799;-79
2023/04/22 11:26:34;;;;;;;7.60;3.90;;;;;;;;;;4992419;28;20430;-79
2023/04/22 11:29:08;;;;;;;7.15;4.05;;;;;;;;;;5005659;28;20453;-79
2023/04/22 11:31:45;;;;;;;8.35;4.03;;;;;;;;;;4989519;28;20430;-80
2023/04/22 11:34:18;;;;;;;7.80;3.80;;;;;;;;;;5008418;28;20430;-80
2023/04/22 11:36:51;;;;;;;8.43;4.25;;;;;;;;;;4990098;28;21227;-80
2023/04/22 11:39:34;;;;;;;7.57;3.88;;;;;;;;;;5007755;28;20441;-81
2023/04/22 11:42:08;;;;;;;9.07;4.20;;;;;;;;;;4990372;28;20449;-82
2023/04/22 11:44:36;;;;;;;6.13;3.70;;;;;;;;;;4989328;28;20426;-80
2023/04/22 11:47:08;;;;;;;8.05;4.38;;;;;;;;;;4991117;28;20434;-79
2023/04/22 11:49:41;;;;;;;8.02;4.10;;;;;;;;;;5006892;28;20974;-82
2023/04/22 11:52:09;;;;;;;8.95;4.00;;;;;;;;;;4988665;28;20438;-79
2023/04/22 11:54:42;;;;;;;7.88;4.18;;;;;;;;;;4992707;28;20418;-79
2023/04/22 11:57:16;;;;;;;7.33;3.97;;;;;;;;;;5007044;28;20430;-79
2023/04/22 11:59:44;;;;;;;7.95;4.07;;;;;;;;;;5002893;28;20422;-80
2023/04/22 12:02:17;;;;;;;9.07;4.22;;;;;;;;;;5006177;28;20439;-78
2023/04/22 12:04:44;;;;;;;8.50;4.10;;;;;;;;;;4987980;28;20428;-79
2023/04/22 12:07:12;;;;;;;8.10;4.40;;;;;;;;;;4989649;28;20437;-80
2023/04/22 12:09:40;;;;;;;8.40;4.03;;;;;;;;;;4999677;28;22205;-80
2023/04/22 12:12:14;;;;;;;6.85;3.60;;;;;;;;;;4970986;28;20455;-80
2023/04/22 12:14:48;;;;;;;6.57;3.70;;;;;;;;;;4963852;28;20422;-80
2023/04/22 12:17:22;;;;;;;9.43;3.90;;;;;;;;;;4974412;28;20454;-79
2023/04/22 12:19:53;;;;;;;8.38;3.80;;;;;;;;;;4990695;28;20450;-80
2023/04/22 12:22:26;;;;;;;7.40;4.10;;;;;;;;;;4973160;28;20763;-80
2023/04/22 12:24:59;;;;;;;9.82;4.03;;;;;;;;;;4988565;28;20441;-80
2023/04/22 12:27:32;;;;;;;6.40;3.85;;;;;;;;;;4980333;28;20438;-79
2023/04/22 12:30:02;;;;;;;6.07;3.60;;;;;;;;;;4966059;28;20457;-81
2023/04/22 12:32:30;;;;;;;7.72;3.60;;;;;;;;;;4978632;28;20631;-80
2023/04/22 12:35:03;;;;;;;6.32;3.50;;;;;;;;;;4983143;28;20937;-80
2023/04/22 12:37:35;;;;;;;7.17;3.80;;;;;;;;;;4966936;28;20430;-80
2023/04/22 12:40:09;;;;;;;7.05;3.65;;;;;;;;;;4965788;28;20803;-80
2023/04/22 12:42:36;;;;;;;7.50;3.60;;;;;;;;;;4960940;28;20426;-79
2023/04/22 12:45:11;;;;;;;7.00;3.65;;;;;;;;;;4978830;28;20796;-81
2023/04/22 12:47:45;;;;;;;7.47;3.80;;;;;;;;;;4984576;28;20434;-79
2023/04/22 12:50:13;;;;;;;7.53;3.88;;;;;;;;;;4972966;28;20445;-81
2023/04/22 12:52:46;;;;;;;7.35;3.80;;;;;;;;;;4987714;28;20790;-80
2023/04/22 12:55:14;;;;;;;8.43;4.40;;;;;;;;;;4964461;28;20439;-80
2023/04/22 12:57:42;;;;;;;7.35;4.00;;;;;;;;;;4962943;28;20436;-81
2023/04/22 13:00:13;;;;;;;7.55;3.80;;;;;;;;;;4975301;28;20460;-80
2023/04/22 13:02:41;;;;;;;6.63;3.63;;;;;;;;;;4986947;28;20457;-80
2023/04/22 13:05:10;;;;;;;8.02;3.90;;;;;;;;;;4973431;28;20440;-80
2023/04/22 13:07:38;;;;;;;8.45;4.28;;;;;;;;;;4977952;28;20450;-81
2023/04/22 13:10:11;;;;;;;6.47;3.57;;;;;;;;;;4963989;28;22036;-81
2023/04/22 13:12:44;;;;;;;7.28;4.03;;;;;;;;;;4964853;28;20441;-79
2023/04/22 13:15:18;;;;;;;6.80;4.05;;;;;;;;;;4973997;28;20436;-80
2023/04/22 13:17:46;;;;;;;7.53;3.90;;;;;;;;;;4968719;28;20434;-81
2023/04/22 13:20:19;;;;;;;8.15;3.78;;;;;;;;;;4969075;28;20434;-80
2023/04/22 13:22:47;;;;;;;7.53;3.97;;;;;;;;;;4978899;28;21129;-80
2023/04/22 13:25:20;;;;;;;9.23;3.75;;;;;;;;;;4984972;28;20946;-80
2023/04/22 13:27:48;;;;;;;6.63;3.63;;;;;;;;;;4966508;28;20787;-80
2023/04/22 13:30:22;;;;;;;8.25;3.60;;;;;;;;;;4970895;28;22203;-79
2023/04/22 13:32:50;;;;;;;6.32;3.38;;;;;;;;;;4965946;28;20429;-80
2023/04/22 13:35:19;;;;;;;6.63;3.20;;;;;;;;;;4965659;28;21666;-78
2023/04/22 13:37:52;;;;;;;5.93;3.28;;;;;;;;;;4980564;28;20915;-80
2023/04/22 13:40:20;;;;;;;6.20;3.45;;;;;;;;;;4977282;28;20441;-81
2023/04/22 13:42:48;;;;;;;6.03;3.10;;;;;;;;;;4970628;28;20445;-80
2023/04/22 13:45:23;;;;;;;8.38;3.65;;;;;;;;;;4970845;28;20441;-81
2023/04/22 13:47:56;;;;;;;7.60;3.42;;;;;;;;;;4968801;28;20428;-80
2023/04/22 13:50:29;;;;;;;6.28;3.22;;;;;;;;;;4971125;28;20430;-80
2023/04/22 13:52:57;;;;;;;6.80;3.45;;;;;;;;;;4964730;28;20438;-80
2023/04/22 13:55:29;;;;;;;6.93;3.13;;;;;;;;;;4973106;28;21408;-80
2023/04/22 13:58:04;;;;;;;6.07;3.42;;;;;;;;;;4967053;28;21251;-80
2023/04/22 14:00:33;;;;;;;9.38;3.53;;;;;;;;;;4974812;28;20433;-79
2023/04/22 14:03:01;;;;;;;7.93;3.38;;;;;;;;;;4967972;28;20430;-81
2023/04/22 14:05:29;;;;;;;6.28;3.38;;;;;;;;;;4965079;28;20442;-80
2023/04/22 14:08:01;;;;;;;4.93;3.07;;;;;;;;;;4969258;28;20907;-81
2023/04/22 14:10:34;;;;;;;6.28;2.88;;;;;;;;;;4980397;28;20469;-81
2023/04/22 14:13:07;;;;;;;7.00;3.08;;;;;;;;;;4971685;28;20445;-81
2023/04/22 14:15:41;;;;;;;6.32;3.50;;;;;;;;;;4994257;28;20421;-83
2023/04/22 14:18:09;;;;;;;6.18;3.10;;;;;;;;;;4987254;28;21127;-80
2023/04/22 14:20:43;;;;;;;6.03;2.95;;;;;;;;;;4973316;28;21294;-81
2023/04/22 14:23:16;;;;;;;6.65;3.00;;;;;;;;;;4983793;28;20424;-79
2023/04/22 14:25:44;;;;;;;5.43;2.90;;;;;;;;;;4971738;28;20429;-80
2023/04/22 14:28:17;;;;;;;5.00;2.90;;;;;;;;;;4979009;28;21087;-80
2023/04/22 14:30:51;;;;;;;6.13;2.97;;;;;;;;;;4975016;28;20442;-79
2023/04/22 14:33:24;;;;;;;5.43;3.00;;;;;;;;;;4967165;28;20437;-80
2023/04/22 14:35:57;;;;;;;6.70;2.90;;;;;;;;;;4974042;28;20420;-79
2023/04/22 14:38:25;;;;;;;7.30;2.78;;;;;;;;;;4971605;28;20434;-79
2023/04/22 14:40:58;;;;;;;8.45;4.25;;;;;;;;;;4972833;28;20438;-80
2023/04/22 14:43:31;;;;;;;6.05;3.40;;;;;;;;;;4970881;28;20431;-79
2023/04/22 14:46:05;;;;;;;5.20;2.70;;;;;;;;;;4968299;28;20426;-79
2023/04/22 14:48:34;;;;;;;8.05;3.03;;;;;;;;;;4972734;28;20481;-79
2023/04/22 14:51:07;;;;;;;6.55;2.80;;;;;;;;;;4966217;28;20447;-80
2023/04/22 14:53:40;;;;;;;4.03;2.60;;;;;;;;;;4984712;28;20437;-78
2023/04/22 14:56:13;;;;;;;4.68;2.42;;;;;;;;;;4972795;28;20430;-79
2023/04/22 14:58:41;;;;;;;6.20;3.00;;;;;;;;;;4984523;28;20418;-80
2023/04/22 15:01:10;;;;;;;6.43;3.00;;;;;;;;;;4970711;28;20449;-80
2023/04/22 15:03:38;;;;;;;5.70;2.90;;;;;;;;;;4969200;28;20434;-80
2023/04/22 15:06:11;;;;;;;5.80;2.60;;;;;;;;;;4990340;28;20426;-80